createdAt,value
2022-12-23T00:01:25.832Z,14.40
2022-12-23T00:03:52.895Z,9.38
2022-12-23T00:06:21.006Z,14.80
2022-12-23T00:08:49.133Z,14.00
2022-12-23T00:11:20.171Z,14.53
2022-12-23T00:13:47.225Z,14.65
2022-12-23T00:16:17.498Z,15.20
2022-12-23T00:18:44.342Z,9.05
2022-12-23T00:21:13.263Z,15.60
2022-12-23T00:23:43.023Z,13.70
2022-12-23T00:26:15.896Z,12.10
2022-12-23T00:28:43.124Z,14.90
2022-12-23T00:31:12.666Z,14.77
2022-12-23T00:33:41.560Z,15.20
2022-12-23T00:36:12.956Z,13.45
2022-12-23T00:38:40.011Z,13.35
2022-12-23T00:41:10.305Z,12.60
2022-12-23T00:43:38.391Z,15.40
2022-12-23T00:46:07.100Z,14.43
2022-12-23T00:48:33.935Z,12.90
2022-12-23T00:51:00.874Z,12.00
2022-12-23T00:53:27.717Z,11.98
2022-12-23T00:55:54.411Z,13.48
2022-12-23T00:58:22.959Z,10.82
2022-12-23T01:00:53.650Z,14.15
2022-12-23T01:03:20.452Z,11.05
2022-12-23T01:05:47.223Z,9.48
2022-12-23T01:08:13.916Z,12.38
2022-12-23T01:10:41.043Z,11.68
2022-12-23T01:13:10.605Z,10.75
2022-12-23T01:15:37.293Z,11.48
2022-12-23T01:18:05.539Z,11.38
2022-12-23T01:20:32.235Z,10.43
2022-12-23T01:22:58.950Z,11.23
2022-12-23T01:25:28.431Z,12.43
2022-12-23T01:27:55.186Z,10.93
2022-12-23T01:30:25.056Z,10.18
2022-12-23T01:32:51.796Z,9.30
2022-12-23T01:35:22.513Z,11.05
2022-12-23T01:37:49.270Z,10.83
2022-12-23T01:40:16.175Z,9.15
2022-12-23T01:42:42.917Z,10.55
2022-12-23T01:45:14.995Z,10.73
2022-12-23T01:47:45.758Z,11.02
2022-12-23T01:50:16.923Z,9.85
2022-12-23T01:52:50.243Z,12.43
2022-12-23T01:55:20.781Z,12.70
2022-12-23T01:57:48.626Z,9.80
2022-12-23T02:00:16.070Z,11.85
2022-12-23T02:02:43.687Z,13.38
2022-12-23T02:05:11.174Z,11.40
2022-12-23T02:07:38.238Z,13.20
2022-12-23T02:10:07.869Z,11.27
2022-12-23T02:12:45.822Z,10.20
2022-12-23T02:15:27.747Z,14.55
2022-12-23T02:18:05.667Z,12.48
2022-12-23T02:21:01.524Z,8.77
2022-12-23T02:24:13.157Z,13.60
2022-12-23T02:27:10.798Z,13.60
2022-12-23T02:30:10.200Z,12.68
2022-12-23T02:32:50.128Z,14.30
2022-12-23T02:35:27.298Z,14.18
2022-12-23T02:38:00.641Z,14.02
2022-12-23T02:40:34.988Z,14.50
2022-12-23T02:43:06.493Z,12.32
2022-12-23T02:45:38.970Z,10.50
2022-12-23T02:48:11.717Z,14.10
2022-12-23T02:50:40.896Z,14.05
2022-12-23T02:53:13.936Z,11.85
2022-12-23T02:55:45.424Z,12.48
2022-12-23T02:58:17.647Z,12.38
2022-12-23T03:00:45.463Z,12.32
2022-12-23T03:03:14.409Z,13.48
2022-12-23T03:08:15.681Z,8.57
2022-12-23T03:10:55.257Z,11.20
2022-12-23T03:13:32.771Z,9.43
2022-12-23T03:16:08.475Z,11.45
2022-12-23T03:18:51.355Z,12.13
2022-12-23T03:21:24.799Z,11.88
2022-12-23T03:23:57.331Z,10.18
2022-12-23T03:26:31.681Z,11.85
2022-12-23T03:29:05.766Z,11.48
2022-12-23T03:31:34.646Z,12.25
2022-12-23T03:34:08.528Z,12.30
2022-12-23T03:36:40.856Z,13.00
2022-12-23T03:39:11.153Z,12.23
2022-12-23T03:41:42.149Z,13.18
2022-12-23T03:44:15.021Z,11.00
2022-12-23T03:46:47.638Z,11.60
2022-12-23T03:49:20.589Z,11.50
2022-12-23T03:51:52.607Z,10.80
2022-12-23T03:54:26.125Z,9.38
2022-12-23T03:57:00.480Z,11.85
2022-12-23T03:59:30.782Z,8.90
2022-12-23T04:02:07.055Z,9.35
2022-12-23T04:04:45.859Z,8.68
2022-12-23T04:07:18.444Z,9.07
2022-12-23T04:09:45.254Z,9.63
2022-12-23T04:12:13.907Z,10.02
2022-12-23T04:14:46.772Z,8.77
2022-12-23T04:17:13.693Z,9.68
2022-12-23T04:19:41.839Z,9.07
2022-12-23T04:22:08.601Z,8.50
2022-12-23T04:24:35.350Z,8.50
2022-12-23T04:27:02.093Z,8.30
2022-12-23T04:29:28.822Z,6.88
2022-12-23T04:31:55.601Z,8.10
2022-12-23T04:34:22.436Z,8.65
2022-12-23T04:36:50.672Z,7.20
2022-12-23T04:39:17.486Z,7.40
2022-12-23T04:41:44.225Z,7.90
2022-12-23T04:44:10.941Z,7.03
2022-12-23T04:46:37.725Z,6.47
2022-12-23T04:49:04.449Z,7.45
2022-12-23T04:51:40.384Z,6.95
2022-12-23T04:54:08.549Z,7.40
2022-12-23T04:56:35.324Z,8.10
2022-12-23T04:59:02.092Z,8.05
2022-12-23T05:01:28.985Z,7.82
2022-12-23T05:03:56.041Z,7.10
2022-12-23T05:06:22.794Z,7.03
2022-12-23T05:08:49.517Z,7.55
2022-12-23T05:11:20.314Z,8.52
2022-12-23T05:13:49.804Z,8.77
2022-12-23T05:16:16.565Z,8.32
2022-12-23T05:18:43.268Z,8.15
2022-12-23T05:21:10.064Z,8.57
2022-12-23T05:23:37.430Z,8.65
2022-12-23T05:26:06.933Z,8.82
2022-12-23T05:28:35.304Z,9.38
2022-12-23T05:31:06.523Z,8.80
2022-12-23T05:33:34.673Z,8.55
2022-12-23T05:36:07.181Z,10.67
2022-12-23T05:38:34.277Z,8.93
2022-12-23T05:41:01.519Z,9.70
2022-12-23T05:43:28.333Z,9.80
2022-12-23T05:45:56.444Z,9.80
2022-12-23T05:48:23.459Z,10.15
2022-12-23T05:50:50.696Z,10.18
2022-12-23T05:53:17.846Z,8.75
2022-12-23T05:55:44.676Z,7.90
2022-12-23T05:58:11.386Z,8.98
2022-12-23T06:00:38.331Z,9.20
2022-12-23T06:03:12.609Z,8.50
2022-12-23T06:05:39.738Z,8.40
2022-12-23T06:08:08.435Z,9.82
2022-12-23T06:10:38.696Z,10.27
2022-12-23T06:13:07.937Z,9.45
2022-12-23T06:15:36.995Z,10.10
2022-12-23T06:20:31.809Z,10.73
2022-12-23T06:22:58.493Z,9.60
2022-12-23T06:25:25.446Z,10.48
2022-12-23T06:27:52.198Z,9.43
2022-12-23T06:30:22.233Z,11.73
2022-12-23T06:32:50.705Z,11.70
2022-12-23T06:35:18.425Z,12.18
2022-12-23T06:37:49.490Z,9.90
2022-12-23T06:40:18.634Z,10.63
2022-12-23T06:42:47.242Z,10.40
2022-12-23T06:45:16.058Z,11.20
2022-12-23T06:47:42.769Z,10.32
2022-12-23T06:50:10.330Z,10.32
2022-12-23T06:52:37.147Z,9.27
2022-12-23T06:55:11.173Z,9.85
2022-12-23T06:57:38.199Z,11.40
2022-12-23T07:00:06.166Z,11.05
2022-12-23T07:02:35.182Z,11.15
2022-12-23T07:05:02.186Z,9.85
2022-12-23T07:07:28.914Z,11.73
2022-12-23T07:09:55.671Z,12.05
2022-12-23T07:12:23.762Z,11.60
2022-12-23T07:14:50.543Z,11.67
2022-12-23T07:17:17.567Z,11.38
2022-12-23T07:19:44.297Z,12.40
2022-12-23T07:22:11.104Z,11.32
2022-12-23T07:24:37.903Z,11.85
2022-12-23T07:27:05.143Z,11.15
2022-12-23T07:29:33.234Z,13.35
2022-12-23T07:32:02.714Z,14.37
2022-12-23T07:34:29.538Z,13.32
2022-12-23T07:36:56.241Z,14.68
2022-12-23T07:39:23.043Z,14.32
2022-12-23T07:41:55.558Z,14.40
2022-12-23T07:44:37.556Z,14.82
2022-12-23T07:47:04.281Z,13.52
2022-12-23T07:49:31.018Z,12.85
2022-12-23T07:51:57.989Z,12.15
2022-12-23T07:54:24.723Z,12.20
2022-12-23T07:56:51.455Z,11.73
2022-12-23T07:59:18.265Z,11.88
2022-12-23T08:01:46.497Z,12.23
2022-12-23T08:04:13.303Z,13.73
2022-12-23T08:06:42.443Z,14.38
2022-12-23T08:09:09.413Z,14.05
2022-12-23T08:11:36.153Z,11.98
2022-12-23T08:14:03.002Z,12.68
2022-12-23T08:16:29.748Z,12.93
2022-12-23T08:18:57.858Z,12.82
2022-12-23T08:21:24.633Z,13.00
2022-12-23T08:23:51.789Z,12.00
2022-12-23T08:26:20.421Z,12.80
2022-12-23T08:28:48.491Z,14.82
2022-12-23T08:31:17.553Z,17.27
2022-12-23T08:33:46.765Z,18.40
2022-12-23T08:36:22.390Z,16.77
2022-12-23T08:38:50.338Z,16.38
2022-12-23T08:41:22.642Z,15.73
2022-12-23T08:43:51.349Z,16.10
2022-12-23T08:46:23.556Z,17.98
2022-12-23T08:48:51.229Z,19.15
2022-12-23T08:51:21.445Z,15.95
2022-12-23T08:53:49.068Z,19.23
2022-12-23T08:56:23.665Z,18.23
2022-12-23T08:58:57.690Z,18.13
2022-12-23T09:01:26.331Z,16.02
2022-12-23T09:03:53.742Z,14.40
2022-12-23T09:06:29.144Z,14.20
2022-12-23T09:08:56.924Z,13.02
2022-12-23T09:11:29.998Z,12.85
2022-12-23T09:14:00.865Z,15.13
2022-12-23T09:16:31.623Z,14.07
2022-12-23T09:18:58.569Z,15.00
2022-12-23T09:21:26.706Z,13.88
2022-12-23T09:23:53.511Z,15.98
2022-12-23T09:26:22.685Z,14.80
2022-12-23T09:28:49.541Z,15.60
2022-12-23T09:31:16.819Z,16.02
2022-12-23T09:33:46.647Z,14.68
2022-12-23T09:36:13.476Z,13.40
2022-12-23T09:38:41.703Z,14.35
2022-12-23T09:41:22.877Z,15.73
2022-12-23T09:43:59.077Z,17.05
2022-12-23T09:46:28.508Z,16.67
2022-12-23T09:49:01.193Z,19.38
2022-12-23T09:51:28.995Z,18.23
2022-12-23T09:54:04.710Z,19.05
2022-12-23T09:56:37.859Z,18.02
2022-12-23T09:59:14.402Z,16.90
2022-12-23T10:01:47.017Z,17.63
2022-12-23T10:04:41.768Z,17.48
2022-12-23T10:07:34.009Z,17.95
2022-12-23T10:10:13.467Z,18.58
2022-12-23T10:12:44.347Z,17.42
2022-12-23T10:15:21.516Z,18.13
2022-12-23T10:17:54.900Z,15.82
2022-12-23T10:20:37.436Z,22.85
2022-12-23T10:23:05.823Z,22.48
2022-12-23T10:25:41.450Z,20.08
2022-12-23T10:28:11.375Z,19.60
2022-12-23T10:31:05.748Z,20.60
2022-12-23T10:33:37.112Z,21.15
2022-12-23T10:36:12.850Z,20.77
2022-12-23T10:38:58.913Z,20.50
2022-12-23T10:41:35.296Z,22.05
2022-12-23T10:44:27.450Z,20.45
2022-12-23T10:47:01.450Z,23.10
2022-12-23T10:49:37.156Z,23.40
2022-12-23T10:52:10.732Z,22.63
2022-12-23T10:54:39.137Z,19.60
2022-12-23T10:57:09.030Z,22.08
2022-12-23T10:59:36.836Z,20.83
2022-12-23T11:02:22.756Z,19.60
2022-12-23T11:04:50.437Z,19.92
2022-12-23T11:10:16.147Z,19.55
2022-12-23T11:12:47.602Z,19.17
2022-12-23T11:15:31.638Z,17.25
2022-12-23T11:18:05.062Z,16.65
2022-12-23T11:20:32.459Z,15.85
2022-12-23T11:23:01.833Z,17.45
2022-12-23T11:25:32.322Z,16.00
2022-12-23T11:28:03.868Z,15.60
2022-12-23T11:30:32.862Z,17.23
2022-12-23T11:35:29.453Z,16.17
2022-12-23T11:37:57.219Z,15.18
2022-12-23T11:40:27.539Z,17.70
2022-12-23T11:42:57.500Z,15.15
2022-12-23T11:45:28.789Z,15.43
2022-12-23T11:47:56.225Z,15.15
2022-12-23T11:50:34.894Z,15.13
2022-12-23T11:53:10.590Z,13.95
2022-12-23T11:55:42.377Z,14.38
2022-12-23T11:58:18.130Z,15.10
2022-12-23T12:00:55.503Z,15.35
2022-12-23T12:03:27.346Z,14.75
2022-12-23T12:05:58.685Z,14.45
2022-12-23T12:08:29.154Z,13.73
2022-12-23T12:11:04.461Z,12.57
2022-12-23T12:13:36.296Z,14.20
2022-12-23T12:16:19.756Z,14.10
2022-12-23T12:18:53.684Z,13.88
2022-12-23T12:21:28.426Z,11.10
2022-12-23T12:24:17.172Z,13.95
2022-12-23T12:26:47.609Z,12.43
2022-12-23T12:29:18.399Z,11.80
2022-12-23T12:31:50.150Z,12.60
2022-12-23T12:34:30.007Z,13.10
2022-12-23T12:37:01.697Z,13.27
2022-12-23T12:39:33.992Z,12.63
2022-12-23T12:42:08.932Z,12.57
2022-12-23T12:44:41.668Z,12.95
2022-12-23T12:47:52.277Z,12.27
2022-12-23T12:50:13.565Z,12.45
2022-12-23T12:52:42.033Z,13.73
2022-12-23T12:55:17.094Z,13.55
2022-12-23T12:57:43.980Z,14.45
2022-12-23T13:00:16.943Z,13.73
2022-12-23T13:03:06.226Z,13.63
2022-12-23T13:05:56.327Z,14.63
2022-12-23T13:08:37.740Z,12.27
2022-12-23T13:11:09.995Z,14.88
2022-12-23T13:13:47.020Z,14.70
2022-12-23T13:16:26.378Z,15.10
2022-12-23T13:19:04.041Z,14.40
2022-12-23T13:21:36.420Z,14.55
2022-12-23T13:24:13.175Z,13.40
2022-12-23T13:26:45.481Z,12.35
2022-12-23T13:29:35.418Z,13.95
2022-12-23T13:32:06.403Z,12.57
2022-12-23T13:34:46.047Z,12.45
2022-12-23T13:37:25.474Z,14.82
2022-12-23T13:39:57.643Z,14.98
2022-12-23T13:42:29.863Z,14.63
2022-12-23T13:44:58.164Z,12.93
2022-12-23T13:47:34.899Z,14.70
2022-12-23T13:50:10.023Z,13.10
2022-12-23T13:52:54.751Z,13.50
2022-12-23T13:55:36.413Z,12.10
2022-12-23T13:58:11.144Z,12.07
2022-12-23T14:00:42.393Z,11.43
2022-12-23T14:03:23.532Z,12.30
2022-12-23T14:05:53.205Z,10.35
2022-12-23T14:08:26.919Z,10.25
2022-12-23T14:10:57.157Z,11.30
2022-12-23T14:13:27.087Z,11.70
2022-12-23T14:16:29.175Z,11.07
2022-12-23T14:19:12.274Z,11.48
2022-12-23T14:21:50.043Z,11.98
2022-12-23T14:24:44.057Z,11.30
2022-12-23T14:27:36.384Z,11.50
2022-12-23T14:30:12.889Z,11.02
2022-12-23T14:32:45.429Z,9.57
2022-12-23T14:35:22.720Z,10.95
2022-12-23T14:38:20.917Z,9.77
2022-12-23T14:41:18.726Z,9.02
2022-12-23T14:43:57.529Z,9.65
2022-12-23T14:46:54.307Z,8.65
2022-12-23T14:49:40.662Z,9.82
2022-12-23T14:52:45.646Z,10.35
2022-12-23T14:55:44.461Z,9.30
2022-12-23T15:00:46.414Z,10.05
2022-12-23T15:03:13.644Z,9.35
2022-12-23T15:05:40.901Z,10.07
2022-12-23T15:08:27.063Z,9.02
2022-12-23T15:10:56.590Z,8.77
2022-12-23T15:13:25.066Z,10.23
2022-12-23T15:15:57.379Z,10.00
2022-12-23T15:18:27.535Z,10.48
2022-12-23T15:21:02.539Z,11.80
2022-12-23T15:23:29.716Z,11.05
2022-12-23T15:26:00.398Z,10.73
2022-12-23T15:28:35.905Z,9.98
2022-12-23T15:31:02.938Z,10.02
2022-12-23T15:36:28.879Z,9.90
2022-12-23T15:38:56.053Z,10.60
2022-12-23T15:41:24.185Z,9.98
2022-12-23T15:43:51.175Z,10.00
2022-12-23T15:46:26.860Z,10.57
2022-12-23T15:48:56.006Z,9.43
2022-12-23T15:51:58.274Z,8.18
2022-12-23T15:54:23.608Z,9.75
2022-12-23T15:56:53.683Z,9.25
2022-12-23T15:59:25.123Z,9.32
2022-12-23T16:01:53.105Z,8.43
2022-12-23T16:04:25.261Z,13.60
2022-12-23T16:06:52.484Z,11.85
2022-12-23T16:09:30.061Z,11.05
2022-12-23T16:12:02.221Z,17.67
2022-12-23T16:14:38.037Z,14.95
2022-12-23T16:17:16.659Z,15.18
2022-12-23T16:19:46.024Z,13.73
2022-12-23T16:22:26.393Z,12.18
2022-12-23T16:24:59.254Z,9.48
2022-12-23T16:27:35.683Z,11.18
2022-12-23T16:30:10.393Z,12.05
2022-12-23T16:32:47.445Z,11.90
2022-12-23T16:35:35.326Z,13.18
2022-12-23T16:38:14.353Z,11.30
2022-12-23T16:40:42.090Z,13.40
2022-12-23T16:43:10.277Z,12.13
2022-12-23T16:45:37.516Z,11.43
2022-12-23T16:48:10.793Z,10.32
2022-12-23T16:50:37.525Z,11.88
2022-12-23T16:53:04.205Z,12.60
2022-12-23T16:55:31.917Z,11.50
2022-12-23T16:58:03.075Z,11.13
2022-12-23T17:00:31.230Z,9.48
2022-12-23T17:03:04.759Z,10.30
2022-12-23T17:05:36.547Z,11.18
2022-12-23T17:08:04.160Z,12.05
2022-12-23T17:10:30.913Z,9.93
2022-12-23T17:12:57.677Z,12.48
2022-12-23T17:15:25.518Z,12.73
2022-12-23T17:17:54.830Z,13.57
2022-12-23T17:20:22.924Z,10.95
2022-12-23T17:22:52.703Z,13.87
2022-12-23T17:25:24.486Z,9.63
2022-12-23T17:27:53.266Z,6.82
2022-12-23T17:30:22.637Z,11.25
2022-12-23T17:32:52.101Z,9.15
2022-12-23T17:35:20.961Z,9.38
2022-12-23T17:37:47.769Z,5.90
2022-12-23T17:40:16.393Z,5.97
2022-12-23T17:42:43.499Z,5.83
2022-12-23T17:45:23.400Z,6.45
2022-12-23T17:47:50.515Z,4.80
2022-12-23T17:50:21.909Z,5.75
2022-12-23T17:52:49.342Z,7.20
2022-12-23T17:55:19.125Z,5.07
2022-12-23T17:57:45.878Z,4.50
2022-12-23T18:00:14.710Z,5.63
2022-12-23T18:02:44.915Z,5.07
2022-12-23T18:05:31.651Z,4.85
2022-12-23T18:07:59.992Z,5.72
2022-12-23T18:10:29.758Z,5.00
2022-12-23T18:12:59.592Z,5.28
2022-12-23T18:15:30.897Z,4.63
2022-12-23T18:17:57.649Z,3.83
2022-12-23T18:20:25.843Z,5.38
2022-12-23T18:22:58.314Z,5.22
2022-12-23T18:25:26.744Z,6.32
2022-12-23T18:27:54.583Z,3.65
2022-12-23T18:30:21.605Z,5.10
2022-12-23T18:32:51.466Z,4.72
2022-12-23T18:35:28.388Z,6.07
2022-12-23T18:37:55.249Z,3.92
2022-12-23T18:40:24.807Z,4.50
2022-12-23T18:42:55.050Z,4.57
2022-12-23T18:45:29.808Z,4.90
2022-12-23T18:47:57.055Z,4.95
2022-12-23T18:50:25.908Z,5.35
2022-12-23T18:52:53.038Z,3.83
2022-12-23T18:55:20.556Z,4.70
2022-12-23T18:57:51.006Z,3.65
2022-12-23T19:00:20.574Z,4.72
2022-12-23T19:02:48.296Z,3.80
2022-12-23T19:05:18.649Z,4.93
2022-12-23T19:07:47.421Z,3.78
2022-12-23T19:10:16.949Z,2.92
2022-12-23T19:12:43.778Z,5.07
2022-12-23T19:15:11.673Z,4.97
2022-12-23T19:17:38.455Z,3.20
2022-12-23T19:20:06.878Z,4.55
2022-12-23T19:22:33.633Z,4.55
2022-12-23T19:25:06.601Z,4.20
2022-12-23T19:27:33.964Z,4.13
2022-12-23T19:30:00.861Z,4.63
2022-12-23T19:32:27.909Z,3.67
2022-12-23T19:34:54.992Z,4.43
2022-12-23T19:37:21.747Z,4.82
2022-12-23T19:39:48.505Z,3.60
2022-12-23T19:42:16.609Z,3.80
2022-12-23T19:44:43.419Z,4.07
2022-12-23T19:47:10.193Z,4.00
2022-12-23T19:49:39.661Z,3.75
2022-12-23T19:52:06.467Z,5.45
2022-12-23T19:54:33.236Z,5.07
2022-12-23T19:56:59.979Z,3.78
2022-12-23T19:59:29.285Z,3.40
2022-12-23T20:01:56.067Z,3.58
2022-12-23T20:04:23.036Z,3.90
2022-12-23T20:06:49.825Z,5.03
2022-12-23T20:09:16.859Z,4.65
2022-12-23T20:11:45.429Z,5.10
2022-12-23T20:14:14.487Z,4.32
2022-12-23T20:16:43.982Z,3.60
2022-12-23T20:19:11.160Z,3.90
2022-12-23T20:21:38.099Z,4.05
2022-12-23T20:24:05.572Z,3.15
2022-12-23T20:26:32.302Z,3.13
2022-12-23T20:28:59.037Z,3.00
2022-12-23T20:31:27.331Z,4.40
2022-12-23T20:33:56.144Z,3.33
2022-12-23T20:36:24.581Z,2.90
2022-12-23T20:38:52.037Z,3.15
2022-12-23T20:41:21.057Z,3.65
2022-12-23T20:46:34.622Z,3.92
2022-12-23T20:49:02.746Z,3.55
2022-12-23T20:51:29.480Z,3.60
2022-12-23T20:53:57.860Z,4.40
2022-12-23T20:56:25.316Z,3.28
2022-12-23T20:58:57.084Z,3.45
2022-12-23T21:01:26.462Z,3.85
2022-12-23T21:03:53.416Z,5.30
2022-12-23T21:06:22.068Z,4.13
2022-12-23T21:08:49.071Z,3.50
2022-12-23T21:11:16.318Z,4.05
2022-12-23T21:13:43.096Z,3.38
2022-12-23T21:16:12.543Z,3.90
2022-12-23T21:18:44.398Z,3.58
2022-12-23T21:21:12.122Z,4.28
2022-12-23T21:23:41.953Z,2.30
2022-12-23T21:26:11.302Z,3.30
2022-12-23T21:28:39.052Z,3.17
2022-12-23T21:31:06.380Z,3.10
2022-12-23T21:33:35.461Z,2.67
2022-12-23T21:38:31.596Z,2.88
2022-12-23T21:41:04.697Z,2.53
2022-12-23T21:43:31.897Z,3.58
2022-12-23T21:46:00.032Z,2.40
2022-12-23T21:48:29.614Z,2.67
2022-12-23T21:51:02.582Z,3.78
2022-12-23T21:53:29.328Z,2.72
2022-12-23T21:56:02.591Z,2.80
2022-12-23T21:58:29.528Z,3.00
2022-12-23T22:00:56.992Z,2.40
2022-12-23T22:03:23.983Z,3.53
2022-12-23T22:05:50.908Z,2.85
2022-12-23T22:08:17.714Z,2.85
2022-12-23T22:10:44.510Z,2.63
2022-12-23T22:13:12.611Z,3.10
2022-12-23T22:15:40.785Z,2.93
2022-12-23T22:18:07.814Z,3.20
2022-12-23T22:20:42.575Z,2.38
2022-12-23T22:23:12.596Z,2.57
2022-12-23T22:25:39.293Z,3.58
2022-12-23T22:28:06.035Z,2.55
2022-12-23T22:30:34.122Z,3.00
2022-12-23T22:33:00.863Z,2.50
2022-12-23T22:35:27.584Z,3.90
2022-12-23T22:37:54.340Z,3.05
2022-12-23T22:40:21.028Z,2.72
2022-12-23T22:42:47.744Z,3.50
2022-12-23T22:45:14.519Z,3.00
2022-12-23T22:47:42.836Z,2.10
2022-12-23T22:50:10.249Z,2.73
2022-12-23T22:52:37.020Z,2.17
2022-12-23T22:55:04.167Z,3.70
2022-12-23T22:57:31.008Z,2.40
2022-12-23T22:59:57.769Z,2.90
2022-12-23T23:02:24.775Z,3.08
2022-12-23T23:04:53.109Z,3.42
2022-12-23T23:07:19.942Z,3.03
2022-12-23T23:09:46.651Z,2.35
2022-12-23T23:12:13.403Z,2.97
2022-12-23T23:14:40.654Z,2.97
2022-12-23T23:17:07.450Z,2.85
2022-12-23T23:19:34.230Z,2.95
2022-12-23T23:22:02.252Z,2.80
2022-12-23T23:24:31.374Z,2.73
2022-12-23T23:26:58.367Z,3.60
2022-12-23T23:29:25.119Z,2.33
2022-12-23T23:31:51.907Z,3.35
2022-12-23T23:34:18.754Z,3.42
2022-12-23T23:36:45.497Z,2.33
2022-12-23T23:39:14.035Z,2.78
2022-12-23T23:41:40.831Z,3.90
2022-12-23T23:44:07.662Z,2.95
2022-12-23T23:46:34.910Z,3.03
2022-12-23T23:49:01.810Z,2.80
2022-12-23T23:51:28.684Z,3.08
2022-12-23T23:53:55.449Z,3.53
2022-12-23T23:56:25.793Z,3.30
2022-12-23T23:58:53.355Z,3.40
